Arickaree, Colorado
Current Conditions -  °F | °C
As of 12:55 PM on Thursday 23 Oct 2014 (Local Time) from KLIC Reporting Station
Clear Clear  
Wind Chill: 69°   Ceiling: Unl
Heat Index: 69°   Visibility: 10mi
Dew Point: 27°   Wind: 7mph
Humidity: 21%   Direction: 240°WSW
Pressure: 30.16"   Gusts: NA
Location:  39.6673°N, 103.47°W
Report Text: KLIC 231855Z AUTO 24006KT 10SM CLR 21/M03 A3016 RMK AO2 SLP168 T02061028
Loading
Personal Weather Stations






























Interactive Weather Map
Tropical Storm Tracking
New forecast layout! Learn more

10-Day Weather Forecast

Advertisements
Track Severe Weather on mobile